Time;durP1;ratioP1;P1;durP2;ratioP2;P2;SDS_P1;SDS_P2;PMS_P1;PMS_P2;Temp;Humidity;BMP_temperature;BMP_pressure;BME280_temperature;BME280_humidity;BME280_pressure;Samples;Min_cycle;Max_cycle;Signal;HPM_P1;HPM_P2
2021/03/31 00:00:11;;;;;;;5.03;3.60;;;;;;;;;;5093033;28;20047;-55
2021/03/31 00:02:38;;;;;;;4.38;3.15;;;;;;;;;;5092819;28;20028;-55
2021/03/31 00:05:05;;;;;;;4.10;3.40;;;;;;;;;;5092871;28;20385;-55
2021/03/31 00:07:32;;;;;;;9.37;4.13;;;;;;;;;;5092698;28;20047;-55
2021/03/31 00:09:59;;;;;;;4.13;3.00;;;;;;;;;;5092860;28;20024;-55
2021/03/31 00:12:26;;;;;;;7.22;3.63;;;;;;;;;;5092767;28;20051;-55
2021/03/31 00:14:52;;;;;;;5.30;3.45;;;;;;;;;;5092834;28;20039;-55
2021/03/31 00:17:19;;;;;;;5.77;3.10;;;;;;;;;;5093149;28;20378;-55
2021/03/31 00:19:46;;;;;;;4.37;3.43;;;;;;;;;;5092761;28;20035;-55
2021/03/31 00:22:13;;;;;;;5.23;2.87;;;;;;;;;;5092762;28;20383;-55
2021/03/31 00:24:39;;;;;;;3.93;2.30;;;;;;;;;;5092757;28;20386;-55
2021/03/31 00:27:09;;;;;;;5.10;3.10;;;;;;;;;;5092786;28;20049;-55
2021/03/31 00:29:36;;;;;;;5.27;3.27;;;;;;;;;;5093362;28;20028;-55
2021/03/31 00:32:03;;;;;;;3.30;2.17;;;;;;;;;;5096709;28;20081;-55
2021/03/31 00:34:30;;;;;;;3.20;2.10;;;;;;;;;;5096655;28;20039;-55
2021/03/31 00:36:56;;;;;;;5.07;2.10;;;;;;;;;;5096696;28;20078;-55
2021/03/31 00:39:23;;;;;;;6.70;2.40;;;;;;;;;;5096566;28;20032;-55
2021/03/31 00:41:50;;;;;;;4.00;2.50;;;;;;;;;;5096437;28;20051;-55
2021/03/31 00:44:19;;;;;;;5.27;2.43;;;;;;;;;;5096435;28;20028;-55
2021/03/31 00:46:46;;;;;;;13.17;2.60;;;;;;;;;;5096623;28;20074;-55
2021/03/31 00:49:13;;;;;;;3.80;2.47;;;;;;;;;;5096467;28;20051;-55
2021/03/31 00:51:39;;;;;;;5.40;2.27;;;;;;;;;;5096229;28;20016;-55
2021/03/31 00:54:06;;;;;;;6.00;2.97;;;;;;;;;;5096261;28;20036;-55
2021/03/31 00:56:33;;;;;;;7.70;3.00;;;;;;;;;;5096481;28;20020;-55
2021/03/31 00:59:00;;;;;;;6.63;2.50;;;;;;;;;;5096164;28;20028;-55
2021/03/31 01:01:27;;;;;;;8.67;2.60;;;;;;;;;;5096002;28;20103;-55
2021/03/31 01:03:54;;;;;;;7.13;2.60;;;;;;;;;;5096173;28;20024;-55
2021/03/31 01:06:20;;;;;;;5.80;2.50;;;;;;;;;;5095870;28;20071;-55
2021/03/31 01:08:47;;;;;;;5.27;2.80;;;;;;;;;;5096127;28;20041;-55
2021/03/31 01:11:18;;;;;;;4.10;3.10;;;;;;;;;;5096066;28;20024;-55
2021/03/31 01:13:51;;;;;;;6.73;2.90;;;;;;;;;;5095875;28;20564;-55
2021/03/31 01:16:36;;;;;;;11.57;2.80;;;;;;;;;;5095866;28;20479;-55
2021/03/31 01:19:09;;;;;;;10.93;3.30;;;;;;;;;;5095925;28;20027;-55
2021/03/31 01:21:36;;;;;;;12.60;3.23;;;;;;;;;;5095707;28;20028;-55
2021/03/31 01:24:28;;;;;;;9.83;2.90;;;;;;;;;;5095814;28;20058;-55
2021/03/31 01:26:58;;;;;;;6.07;2.57;;;;;;;;;;5064913;28;20406;-55
2021/03/31 01:29:28;;;;;;;8.80;2.70;;;;;;;;;;5095728;28;20035;-55
2021/03/31 01:32:00;;;;;;;5.43;2.60;;;;;;;;;;5095701;28;20032;-55
2021/03/31 01:34:43;;;;;;;13.27;2.77;;;;;;;;;;5095608;28;20031;-55
2021/03/31 01:37:12;;;;;;;8.27;2.80;;;;;;;;;;5095483;28;20028;-54
2021/03/31 01:39:41;;;;;;;6.27;3.23;;;;;;;;;;5095554;28;20024;-54
2021/03/31 01:42:09;;;;;;;6.67;3.20;;;;;;;;;;5094780;28;20062;-54
2021/03/31 01:44:36;;;;;;;7.03;3.27;;;;;;;;;;5095400;28;20378;-55
2021/03/31 01:47:03;;;;;;;5.07;3.10;;;;;;;;;;5095404;28;20374;-54
2021/03/31 01:49:31;;;;;;;9.47;2.70;;;;;;;;;;5095328;28;20024;-55
2021/03/31 01:52:00;;;;;;;8.47;3.23;;;;;;;;;;5095200;28;20024;-54
2021/03/31 01:54:27;;;;;;;6.20;3.03;;;;;;;;;;5095027;28;20162;-55
2021/03/31 01:56:54;;;;;;;11.80;3.37;;;;;;;;;;5095092;28;20028;-55
2021/03/31 01:59:22;;;;;;;6.07;3.00;;;;;;;;;;5095032;28;20105;-54
2021/03/31 02:01:53;;;;;;;4.70;2.40;;;;;;;;;;5094768;28;20024;-55
2021/03/31 02:04:21;;;;;;;7.97;3.20;;;;;;;;;;5094924;28;20382;-54
2021/03/31 02:06:48;;;;;;;8.27;3.03;;;;;;;;;;5081569;28;20120;-55
2021/03/31 02:09:16;;;;;;;4.37;2.67;;;;;;;;;;5054657;28;20086;-54
2021/03/31 02:11:44;;;;;;;8.13;2.67;;;;;;;;;;5046427;28;20025;-54
2021/03/31 02:14:21;;;;;;;8.27;2.87;;;;;;;;;;5054440;28;20491;-54
2021/03/31 02:16:48;;;;;;;12.07;3.33;;;;;;;;;;5054583;28;20017;-54
2021/03/31 02:19:17;;;;;;;5.87;2.93;;;;;;;;;;5054484;28;20025;-54
2021/03/31 02:21:44;;;;;;;8.93;3.30;;;;;;;;;;5054305;28;20472;-54
2021/03/31 02:24:15;;;;;;;5.27;2.73;;;;;;;;;;5054244;28;20431;-54
2021/03/31 02:26:42;;;;;;;10.10;3.13;;;;;;;;;;5054387;28;20022;-54
2021/03/31 02:29:09;;;;;;;8.40;2.63;;;;;;;;;;5054155;28;20032;-55
2021/03/31 02:31:37;;;;;;;4.70;3.03;;;;;;;;;;5054178;28;20056;-54
2021/03/31 02:34:05;;;;;;;8.73;3.13;;;;;;;;;;5053948;28;20041;-54
2021/03/31 02:36:33;;;;;;;6.53;2.60;;;;;;;;;;5054124;28;20017;-54
2021/03/31 02:39:00;;;;;;;4.10;2.60;;;;;;;;;;5054003;28;20025;-54
2021/03/31 02:41:28;;;;;;;5.20;2.57;;;;;;;;;;5053854;28;20376;-54
2021/03/31 02:43:56;;;;;;;4.97;2.63;;;;;;;;;;5053950;28;20025;-54
2021/03/31 02:46:23;;;;;;;5.03;2.83;;;;;;;;;;5053879;28;20056;-54
2021/03/31 02:48:51;;;;;;;6.20;2.60;;;;;;;;;;5053987;28;20432;-54
2021/03/31 02:51:18;;;;;;;9.20;3.20;;;;;;;;;;5053697;28;20104;-54
2021/03/31 02:53:46;;;;;;;7.73;2.90;;;;;;;;;;5052827;28;20037;-54
2021/03/31 02:56:14;;;;;;;7.80;2.60;;;;;;;;;;5053702;28;20484;-54
2021/03/31 02:58:43;;;;;;;6.53;3.47;;;;;;;;;;5053609;28;20395;-54
2021/03/31 03:01:10;;;;;;;13.93;3.60;;;;;;;;;;5053569;28;20028;-54
2021/03/31 03:03:37;;;;;;;7.90;3.00;;;;;;;;;;5053483;28;20554;-54
2021/03/31 03:06:04;;;;;;;10.07;3.00;;;;;;;;;;5053339;28;20025;-54
2021/03/31 03:08:31;;;;;;;5.47;3.10;;;;;;;;;;5073879;28;20049;-54
2021/03/31 03:11:01;;;;;;;5.97;3.27;;;;;;;;;;5073301;28;20427;-54
2021/03/31 03:13:28;;;;;;;7.53;3.03;;;;;;;;;;5073154;28;20115;-54
2021/03/31 03:15:56;;;;;;;5.20;3.30;;;;;;;;;;5073267;28;20524;-54
2021/03/31 03:18:23;;;;;;;7.03;3.60;;;;;;;;;;5073544;28;20555;-54
2021/03/31 03:20:51;;;;;;;7.80;3.50;;;;;;;;;;5073034;28;20027;-54
2021/03/31 03:23:19;;;;;;;9.90;3.43;;;;;;;;;;5073131;28;20046;-54
2021/03/31 03:25:49;;;;;;;9.10;3.73;;;;;;;;;;5073271;28;20020;-54
2021/03/31 03:28:19;;;;;;;6.03;2.90;;;;;;;;;;5073215;28;20030;-54
2021/03/31 03:30:47;;;;;;;8.93;3.33;;;;;;;;;;5072998;28;20103;-54
2021/03/31 03:33:15;;;;;;;4.57;3.10;;;;;;;;;;5072930;28;20029;-54
2021/03/31 03:35:42;;;;;;;6.63;3.33;;;;;;;;;;5073092;28;20446;-54
2021/03/31 03:38:09;;;;;;;6.57;3.30;;;;;;;;;;5072928;28;20104;-54
2021/03/31 03:40:35;;;;;;;6.47;3.60;;;;;;;;;;5072861;28;20488;-54
2021/03/31 03:43:02;;;;;;;4.97;3.50;;;;;;;;;;5073109;28;20025;-54
2021/03/31 03:45:30;;;;;;;8.53;3.70;;;;;;;;;;5072788;28;20059;-54
2021/03/31 03:47:58;;;;;;;6.13;3.50;;;;;;;;;;5072893;28;20029;-54
2021/03/31 03:50:25;;;;;;;7.37;3.70;;;;;;;;;;5072830;28;20387;-54
2021/03/31 03:52:52;;;;;;;5.03;3.60;;;;;;;;;;5072731;28;20464;-54
2021/03/31 03:55:26;;;;;;;5.60;3.30;;;;;;;;;;5072727;28;20035;-54
2021/03/31 03:57:53;;;;;;;11.13;3.93;;;;;;;;;;5072871;28;20383;-54
2021/03/31 04:00:22;;;;;;;9.50;3.60;;;;;;;;;;5072573;28;20452;-54
2021/03/31 04:02:52;;;;;;;4.93;3.10;;;;;;;;;;5072641;28;20040;-54
2021/03/31 04:05:19;;;;;;;5.57;3.27;;;;;;;;;;5072348;28;20036;-54
2021/03/31 04:08:00;;;;;;;12.57;3.50;;;;;;;;;;5060735;28;20049;-55
2021/03/31 04:10:28;;;;;;;8.90;3.37;;;;;;;;;;5052638;28;20032;-54
2021/03/31 04:12:56;;;;;;;7.27;3.53;;;;;;;;;;5072513;28;20071;-54
2021/03/31 04:15:23;;;;;;;7.77;3.53;;;;;;;;;;5072407;28;20036;-54
2021/03/31 04:17:51;;;;;;;7.07;3.50;;;;;;;;;;5072615;28;20545;-54
2021/03/31 04:20:20;;;;;;;7.33;4.03;;;;;;;;;;5072305;28;20035;-54
2021/03/31 04:22:48;;;;;;;7.87;3.60;;;;;;;;;;5072469;28;20016;-54
2021/03/31 04:25:15;;;;;;;8.97;4.20;;;;;;;;;;5072444;28;20050;-54
2021/03/31 04:27:44;;;;;;;7.57;3.70;;;;;;;;;;5072574;28;20021;-54
2021/03/31 04:30:11;;;;;;;4.83;3.53;;;;;;;;;;5072400;28;20020;-54
2021/03/31 04:32:42;;;;;;;4.93;3.07;;;;;;;;;;5072504;28;20017;-54
2021/03/31 04:35:09;;;;;;;6.50;3.00;;;;;;;;;;5072463;28;20028;-54
2021/03/31 04:37:36;;;;;;;4.93;2.93;;;;;;;;;;5072529;28;20056;-54
2021/03/31 04:40:04;;;;;;;7.27;3.20;;;;;;;;;;5072378;28;20100;-54
2021/03/31 04:42:31;;;;;;;6.23;3.70;;;;;;;;;;5072350;28;20033;-54
2021/03/31 04:44:58;;;;;;;8.63;3.50;;;;;;;;;;5072384;28;20024;-53
2021/03/31 04:47:25;;;;;;;6.70;3.37;;;;;;;;;;5072334;28;20035;-54
2021/03/31 04:49:51;;;;;;;5.50;3.60;;;;;;;;;;5072210;28;20039;-54
2021/03/31 04:52:18;;;;;;;5.13;3.10;;;;;;;;;;5072190;28;20037;-54
2021/03/31 04:54:45;;;;;;;5.10;3.10;;;;;;;;;;5072253;28;20040;-54
2021/03/31 04:57:12;;;;;;;5.07;3.40;;;;;;;;;;5072265;28;20023;-54
2021/03/31 04:59:38;;;;;;;5.37;3.40;;;;;;;;;;5071955;28;20027;-54
2021/03/31 05:02:05;;;;;;;7.03;3.00;;;;;;;;;;5071946;28;20024;-54
2021/03/31 05:04:32;;;;;;;3.87;2.73;;;;;;;;;;5071968;28;20035;-54
2021/03/31 05:06:59;;;;;;;4.80;3.30;;;;;;;;;;5072652;28;20391;-54
2021/03/31 05:09:25;;;;;;;5.90;3.20;;;;;;;;;;5071965;28;20071;-54
2021/03/31 05:11:52;;;;;;;12.63;3.60;;;;;;;;;;5072044;28;20380;-54
2021/03/31 05:14:20;;;;;;;5.23;3.57;;;;;;;;;;5072070;28;20475;-54
2021/03/31 05:16:47;;;;;;;9.37;3.50;;;;;;;;;;5072861;28;20522;-54
2021/03/31 05:19:13;;;;;;;8.57;3.30;;;;;;;;;;5075383;28;20493;-54
2021/03/31 05:21:40;;;;;;;5.37;3.27;;;;;;;;;;5075515;28;20383;-54
2021/03/31 05:24:07;;;;;;;10.77;3.40;;;;;;;;;;5075462;28;20028;-54
2021/03/31 05:26:34;;;;;;;8.47;3.83;;;;;;;;;;5075507;28;20025;-54
2021/03/31 05:29:01;;;;;;;7.73;4.37;;;;;;;;;;5075298;28;20032;-54
2021/03/31 05:31:27;;;;;;;10.67;5.60;;;;;;;;;;5075110;28;20043;-54
2021/03/31 05:33:54;;;;;;;7.60;4.33;;;;;;;;;;5075078;28;20174;-54
2021/03/31 05:36:21;;;;;;;6.17;3.83;;;;;;;;;;5075183;28;20021;-54
2021/03/31 05:38:48;;;;;;;10.13;3.90;;;;;;;;;;5075351;28;20051;-54
2021/03/31 05:41:15;;;;;;;4.93;3.03;;;;;;;;;;5075046;28;20308;-54
2021/03/31 05:43:42;;;;;;;4.80;3.57;;;;;;;;;;5075257;28;20032;-54
2021/03/31 05:46:09;;;;;;;5.37;3.97;;;;;;;;;;5074923;28;20039;-54
2021/03/31 05:48:36;;;;;;;5.70;3.30;;;;;;;;;;5075010;28;20478;-55
2021/03/31 05:51:03;;;;;;;4.63;3.00;;;;;;;;;;5074909;28;20487;-54
2021/03/31 05:53:30;;;;;;;7.17;3.33;;;;;;;;;;5074826;28;20043;-54
2021/03/31 05:55:57;;;;;;;7.87;3.43;;;;;;;;;;5075071;28;20044;-54
2021/03/31 05:58:24;;;;;;;5.97;3.67;;;;;;;;;;5074348;28;20031;-55
2021/03/31 06:00:51;;;;;;;5.20;3.47;;;;;;;;;;5074557;28;20063;-54
2021/03/31 06:03:20;;;;;;;7.13;3.50;;;;;;;;;;5074629;28;20113;-54
2021/03/31 06:05:47;;;;;;;15.73;3.80;;;;;;;;;;5074745;28;20075;-54
2021/03/31 06:08:14;;;;;;;6.60;3.50;;;;;;;;;;5075204;28;20048;-54
2021/03/31 06:10:41;;;;;;;5.57;3.50;;;;;;;;;;5074379;28;20025;-54
2021/03/31 06:13:09;;;;;;;5.17;3.47;;;;;;;;;;5074911;28;20071;-54
2021/03/31 06:15:39;;;;;;;12.43;3.63;;;;;;;;;;5074626;28;20061;-54
2021/03/31 06:18:09;;;;;;;10.37;3.47;;;;;;;;;;5074476;28;20051;-54
2021/03/31 06:20:39;;;;;;;8.40;4.03;;;;;;;;;;5074348;28;20052;-54
2021/03/31 06:23:17;;;;;;;7.53;3.50;;;;;;;;;;5074573;28;20024;-54
2021/03/31 06:26:05;;;;;;;7.87;4.03;;;;;;;;;;5074149;28;20028;-54
2021/03/31 06:28:35;;;;;;;11.70;4.50;;;;;;;;;;5074259;28;20023;-54
2021/03/31 06:31:10;;;;;;;7.50;3.13;;;;;;;;;;5074117;28;20039;-54
2021/03/31 06:33:46;;;;;;;7.75;4.32;;;;;;;;;;5074106;28;20040;-54
2021/03/31 06:36:14;;;;;;;14.00;5.10;;;;;;;;;;5074009;28;20036;-54
2021/03/31 06:38:49;;;;;;;10.67;4.13;;;;;;;;;;5073936;28;20539;-54
2021/03/31 06:41:26;;;;;;;5.23;3.33;;;;;;;;;;5074014;28;20127;-54
2021/03/31 06:49:12;;;;;;;12.57;4.10;;;;;;;;;;5073914;28;20024;-54
2021/03/31 06:51:39;;;;;;;5.03;3.73;;;;;;;;;;5073762;28;20024;-54
2021/03/31 06:54:17;;;;;;;6.33;3.90;;;;;;;;;;5073683;28;20032;-54
2021/03/31 06:56:54;;;;;;;7.73;3.63;;;;;;;;;;5073712;28;20052;-54
2021/03/31 06:59:33;;;;;;;7.43;3.40;;;;;;;;;;5073562;28;20033;-54
2021/03/31 07:02:01;;;;;;;6.27;3.83;;;;;;;;;;5073478;28;20036;-54
2021/03/31 07:04:29;;;;;;;8.73;4.37;;;;;;;;;;5073436;28;20102;-54
2021/03/31 07:07:03;;;;;;;9.13;4.73;;;;;;;;;;5073634;28;20410;-55
2021/03/31 07:09:36;;;;;;;7.33;4.23;;;;;;;;;;5053398;28;20063;-54
2021/03/31 07:12:16;;;;;;;9.03;3.60;;;;;;;;;;5053354;28;20403;-54
2021/03/31 07:14:44;;;;;;;6.20;3.37;;;;;;;;;;5053412;28;20037;-54
2021/03/31 07:17:11;;;;;;;7.30;3.80;;;;;;;;;;5053519;28;20024;-54
2021/03/31 07:19:38;;;;;;;6.47;3.40;;;;;;;;;;5053300;28;20116;-54
2021/03/31 07:22:07;;;;;;;6.97;4.00;;;;;;;;;;5053219;28;20379;-54
2021/03/31 07:24:34;;;;;;;7.47;3.63;;;;;;;;;;5053377;28;20025;-53
2021/03/31 07:27:01;;;;;;;5.90;3.60;;;;;;;;;;5053220;28;20021;-54
2021/03/31 07:29:28;;;;;;;6.53;3.40;;;;;;;;;;5053077;28;20029;-54
2021/03/31 07:31:55;;;;;;;6.57;3.70;;;;;;;;;;5053178;28;20028;-54
2021/03/31 07:34:30;;;;;;;7.37;3.63;;;;;;;;;;5052836;28;20065;-54
2021/03/31 07:36:57;;;;;;;7.38;3.90;;;;;;;;;;5053084;28;20411;-54
2021/03/31 07:39:30;;;;;;;9.83;3.60;;;;;;;;;;5052567;28;20100;-54
2021/03/31 07:41:57;;;;;;;12.77;3.90;;;;;;;;;;5053025;28;20025;-54
2021/03/31 07:44:27;;;;;;;7.93;3.83;;;;;;;;;;5052808;28;20446;-54
2021/03/31 07:46:55;;;;;;;8.33;3.57;;;;;;;;;;5052924;28;20025;-54
2021/03/31 07:49:22;;;;;;;7.83;3.63;;;;;;;;;;5052853;28;20021;-54
2021/03/31 07:52:03;;;;;;;6.10;3.80;;;;;;;;;;5052781;28;20021;-54
2021/03/31 07:54:32;;;;;;;7.67;4.00;;;;;;;;;;5053029;28;20047;-54
2021/03/31 07:56:59;;;;;;;7.47;3.93;;;;;;;;;;5052645;28;20187;-54
2021/03/31 07:59:26;;;;;;;8.10;4.30;;;;;;;;;;5052591;28;20029;-54
2021/03/31 08:01:54;;;;;;;8.17;4.40;;;;;;;;;;5052647;28;20029;-54
2021/03/31 08:04:26;;;;;;;9.10;4.30;;;;;;;;;;5053032;28;20029;-54
2021/03/31 08:07:00;;;;;;;10.87;4.10;;;;;;;;;;5052691;28;20024;-54
2021/03/31 08:09:30;;;;;;;6.57;3.90;;;;;;;;;;5072318;28;20133;-54
2021/03/31 08:11:57;;;;;;;6.93;4.20;;;;;;;;;;5072878;28;20029;-54
2021/03/31 08:14:26;;;;;;;6.10;3.87;;;;;;;;;;5072555;28;20040;-54
2021/03/31 08:16:54;;;;;;;15.13;4.00;;;;;;;;;;5072574;28;20044;-54
2021/03/31 08:19:24;;;;;;;9.30;3.40;;;;;;;;;;5072567;28;20025;-54
2021/03/31 08:21:52;;;;;;;7.43;3.63;;;;;;;;;;5072496;28;20430;-54
2021/03/31 08:24:20;;;;;;;6.07;3.00;;;;;;;;;;5072546;28;20025;-54
2021/03/31 08:26:48;;;;;;;5.73;3.53;;;;;;;;;;5072629;28;20020;-53
2021/03/31 08:29:21;;;;;;;8.43;4.43;;;;;;;;;;5072453;28;20060;-54
2021/03/31 08:31:48;;;;;;;9.60;4.13;;;;;;;;;;5072371;28;20029;-54
2021/03/31 08:34:16;;;;;;;5.27;3.87;;;;;;;;;;5072305;28;20033;-54
2021/03/31 08:36:43;;;;;;;8.10;3.80;;;;;;;;;;5072368;28;20048;-54
2021/03/31 08:39:12;;;;;;;5.63;3.80;;;;;;;;;;5072356;28;20086;-54
2021/03/31 08:41:42;;;;;;;9.13;4.73;;;;;;;;;;5072499;28;20029;-54
2021/03/31 08:44:24;;;;;;;6.83;3.70;;;;;;;;;;5072277;28;20028;-54
2021/03/31 08:46:51;;;;;;;5.40;3.90;;;;;;;;;;5072466;28;20028;-54
2021/03/31 08:49:28;;;;;;;6.50;3.90;;;;;;;;;;5072206;28;20036;-54
2021/03/31 08:51:56;;;;;;;7.33;4.53;;;;;;;;;;5073470;28;20035;-54
2021/03/31 08:54:39;;;;;;;6.10;4.00;;;;;;;;;;5075909;28;20045;-54
2021/03/31 08:57:07;;;;;;;8.20;5.07;;;;;;;;;;5075995;28;20052;-54
2021/03/31 08:59:38;;;;;;;9.07;4.37;;;;;;;;;;5075989;28;20024;-54
2021/03/31 09:02:05;;;;;;;8.40;4.60;;;;;;;;;;5075761;28;20468;-54
2021/03/31 09:04:33;;;;;;;9.80;4.80;;;;;;;;;;5075830;28;20428;-54
2021/03/31 09:07:01;;;;;;;7.13;5.10;;;;;;;;;;5075912;28;20020;-54
2021/03/31 09:09:35;;;;;;;6.63;4.43;;;;;;;;;;5075810;28;20135;-54
2021/03/31 09:12:15;;;;;;;7.47;4.93;;;;;;;;;;5076013;28;20034;-54
2021/03/31 09:14:43;;;;;;;16.37;4.87;;;;;;;;;;5075728;28;20119;-54
2021/03/31 09:17:16;;;;;;;6.40;4.30;;;;;;;;;;5075645;28;20029;-54
2021/03/31 09:19:44;;;;;;;6.83;3.93;;;;;;;;;;5075607;28;20035;-54
2021/03/31 09:22:11;;;;;;;7.63;4.03;;;;;;;;;;5075452;28;20056;-55
2021/03/31 09:24:42;;;;;;;7.20;4.70;;;;;;;;;;5075482;28;20025;-54
2021/03/31 09:27:13;;;;;;;7.63;4.50;;;;;;;;;;5075429;28;20463;-54
2021/03/31 09:29:43;;;;;;;6.67;4.80;;;;;;;;;;5075511;28;20033;-53
2021/03/31 09:32:20;;;;;;;7.60;4.80;;;;;;;;;;5075430;28;20017;-54
2021/03/31 09:34:47;;;;;;;7.10;4.83;;;;;;;;;;5075241;28;20079;-54
2021/03/31 09:37:15;;;;;;;9.03;4.40;;;;;;;;;;5075259;28;20047;-54
2021/03/31 09:39:49;;;;;;;13.63;7.00;;;;;;;;;;5075469;28;20039;-54
2021/03/31 09:42:32;;;;;;;7.03;4.30;;;;;;;;;;5075202;28;20025;-54
2021/03/31 09:44:59;;;;;;;7.13;4.20;;;;;;;;;;5075090;28;20051;-54
2021/03/31 09:47:28;;;;;;;7.43;4.80;;;;;;;;;;5075138;28;20056;-54
2021/03/31 09:49:55;;;;;;;8.27;4.53;;;;;;;;;;5074977;28;20032;-54
2021/03/31 09:52:26;;;;;;;7.57;4.83;;;;;;;;;;5075099;28;20024;-54
2021/03/31 09:54:53;;;;;;;8.37;4.90;;;;;;;;;;5074871;28;20036;-54
2021/03/31 09:57:25;;;;;;;15.53;5.47;;;;;;;;;;5075141;28;20025;-54
2021/03/31 09:59:52;;;;;;;10.03;5.00;;;;;;;;;;5074818;28;20036;-54
2021/03/31 10:02:19;;;;;;;8.50;4.50;;;;;;;;;;5074202;28;20110;-54
2021/03/31 10:04:46;;;;;;;7.20;3.80;;;;;;;;;;5074720;28;20032;-54
2021/03/31 10:07:18;;;;;;;6.53;4.40;;;;;;;;;;5074688;28;20119;-54
2021/03/31 10:09:46;;;;;;;6.00;3.63;;;;;;;;;;5073817;28;20062;-53
2021/03/31 10:12:21;;;;;;;7.57;4.87;;;;;;;;;;5074594;28;20074;-54
2021/03/31 10:14:50;;;;;;;9.40;4.40;;;;;;;;;;5074497;28;20399;-54
2021/03/31 10:17:18;;;;;;;7.77;4.63;;;;;;;;;;5074688;28;20456;-54
2021/03/31 10:19:45;;;;;;;6.60;4.00;;;;;;;;;;5074343;28;20078;-53
2021/03/31 10:22:13;;;;;;;10.73;4.93;;;;;;;;;;5074707;28;20021;-54
2021/03/31 10:24:41;;;;;;;7.07;4.30;;;;;;;;;;5074436;28;20021;-54
2021/03/31 10:27:09;;;;;;;5.77;3.87;;;;;;;;;;5074443;28;20021;-54
2021/03/31 10:29:36;;;;;;;6.13;4.27;;;;;;;;;;5074341;28;20295;-54
2021/03/31 10:32:05;;;;;;;8.87;4.00;;;;;;;;;;5074195;28;20383;-54
2021/03/31 10:34:39;;;;;;;5.00;3.90;;;;;;;;;;5074182;28;20025;-54
2021/03/31 10:40:02;;;;;;;6.50;4.00;;;;;;;;;;5074128;28;20340;-54
2021/03/31 10:53:44;;;;;;;10.52;4.45;;;;;;;;;;5074099;28;20047;-54
2021/03/31 10:56:11;;;;;;;8.70;5.07;;;;;;;;;;5073765;28;20043;-54
2021/03/31 10:58:41;;;;;;;9.03;4.87;;;;;;;;;;5073641;28;20031;-54
2021/03/31 11:01:08;;;;;;;7.03;4.10;;;;;;;;;;5073530;28;20260;-54
2021/03/31 11:03:35;;;;;;;6.07;4.07;;;;;;;;;;5073642;28;20257;-54
2021/03/31 11:06:02;;;;;;;6.93;4.60;;;;;;;;;;5073618;28;20020;-54
2021/03/31 11:08:29;;;;;;;6.93;3.93;;;;;;;;;;5073389;28;20288;-54
2021/03/31 11:10:56;;;;;;;7.47;4.27;;;;;;;;;;5073361;28;20258;-54
2021/03/31 11:13:23;;;;;;;7.63;4.80;;;;;;;;;;5073272;28;20273;-53
2021/03/31 11:15:52;;;;;;;5.90;3.73;;;;;;;;;;5072537;28;20033;-54
2021/03/31 11:26:33;;;;;;;7.78;5.03;;;;;;;;;;5073429;28;20059;-53
2021/03/31 11:29:00;;;;;;;5.90;4.37;;;;;;;;;;5073075;28;20467;-54
2021/03/31 11:31:27;;;;;;;7.13;4.70;;;;;;;;;;5073133;28;20253;-54
2021/03/31 11:33:53;;;;;;;6.90;4.50;;;;;;;;;;5073083;28;20342;-53
2021/03/31 11:36:20;;;;;;;6.63;3.97;;;;;;;;;;5072935;28;20261;-54
2021/03/31 11:38:47;;;;;;;6.23;3.83;;;;;;;;;;5073004;28;20383;-54
2021/03/31 11:41:14;;;;;;;7.60;5.00;;;;;;;;;;5072861;28;20253;-54
2021/03/31 11:43:41;;;;;;;9.47;5.40;;;;;;;;;;5072873;28;20257;-54
2021/03/31 11:46:08;;;;;;;8.13;5.17;;;;;;;;;;5072895;28;20249;-54
2021/03/31 11:48:35;;;;;;;8.67;4.57;;;;;;;;;;5072918;28;20249;-54
2021/03/31 11:51:02;;;;;;;9.03;4.17;;;;;;;;;;5072699;28;20257;-53
2021/03/31 11:53:29;;;;;;;9.77;5.13;;;;;;;;;;5072776;28;20281;-54
2021/03/31 11:55:57;;;;;;;9.47;4.80;;;;;;;;;;5072920;28;20281;-54
2021/03/31 11:58:24;;;;;;;9.93;4.70;;;;;;;;;;5072602;28;20252;-53
2021/03/31 12:00:51;;;;;;;7.27;4.77;;;;;;;;;;5072495;28;20269;-54
2021/03/31 12:03:22;;;;;;;7.57;4.83;;;;;;;;;;5072809;28;20300;-54
2021/03/31 12:05:48;;;;;;;8.27;4.33;;;;;;;;;;5072728;28;20332;-53
2021/03/31 12:08:16;;;;;;;7.30;4.50;;;;;;;;;;5073006;28;20364;-53
2021/03/31 12:10:43;;;;;;;6.63;4.27;;;;;;;;;;5072583;28;20249;-54
2021/03/31 12:13:10;;;;;;;9.33;4.90;;;;;;;;;;5072652;28;20288;-53
2021/03/31 12:15:37;;;;;;;9.53;5.20;;;;;;;;;;5072664;28;20269;-54
2021/03/31 12:18:03;;;;;;;11.40;5.70;;;;;;;;;;5072589;28;20274;-54
2021/03/31 12:20:30;;;;;;;8.43;5.30;;;;;;;;;;5072527;28;20804;-54
2021/03/31 12:22:57;;;;;;;10.93;4.83;;;;;;;;;;5072642;28;20260;-54
2021/03/31 12:25:24;;;;;;;13.23;5.93;;;;;;;;;;5072761;28;20261;-54
2021/03/31 12:27:55;;;;;;;11.23;6.20;;;;;;;;;;5076568;28;20253;-53
2021/03/31 12:30:23;;;;;;;9.77;5.80;;;;;;;;;;5076455;28;20728;-54
2021/03/31 12:32:50;;;;;;;10.80;5.63;;;;;;;;;;5076332;28;20245;-53
2021/03/31 12:35:16;;;;;;;8.73;5.30;;;;;;;;;;5076439;28;20427;-54
2021/03/31 12:37:43;;;;;;;7.23;4.90;;;;;;;;;;5076433;28;20612;-53
2021/03/31 12:40:11;;;;;;;9.10;5.10;;;;;;;;;;5076198;28;20323;-54
2021/03/31 12:42:38;;;;;;;12.00;4.87;;;;;;;;;;5076611;28;20253;-53
2021/03/31 12:45:06;;;;;;;8.07;4.80;;;;;;;;;;5076195;28;20716;-54
2021/03/31 12:47:36;;;;;;;12.53;4.70;;;;;;;;;;5076361;28;20291;-54
2021/03/31 12:50:04;;;;;;;14.27;5.30;;;;;;;;;;5076221;28;20261;-54
2021/03/31 12:52:42;;;;;;;16.13;6.80;;;;;;;;;;5076151;28;20253;-53
2021/03/31 12:55:13;;;;;;;9.77;5.20;;;;;;;;;;5075986;28;20347;-53
2021/03/31 12:57:40;;;;;;;13.90;5.70;;;;;;;;;;5076197;28;20264;-53
2021/03/31 13:00:08;;;;;;;10.23;5.60;;;;;;;;;;5075984;28;20641;-54
2021/03/31 13:02:34;;;;;;;13.40;5.40;;;;;;;;;;5076045;28;20720;-53
2021/03/31 13:05:01;;;;;;;13.17;5.60;;;;;;;;;;5076177;28;20664;-54
2021/03/31 13:07:30;;;;;;;11.80;4.93;;;;;;;;;;5075712;28;20739;-53
2021/03/31 13:09:57;;;;;;;9.93;5.63;;;;;;;;;;5075850;28;20376;-53
2021/03/31 13:12:36;;;;;;;16.13;4.63;;;;;;;;;;5075664;28;20336;-54
2021/03/31 13:15:25;;;;;;;11.13;4.53;;;;;;;;;;5075629;28;20382;-54
2021/03/31 13:23:16;;;;;;;11.65;5.65;;;;;;;;;;5075967;28;20264;-54
2021/03/31 13:25:50;;;;;;;7.50;4.27;;;;;;;;;;5075469;28;20438;-54
2021/03/31 13:33:20;;;;;;;10.87;4.60;;;;;;;;;;5075389;28;20454;-54
2021/03/31 13:40:56;;;;;;;5.30;3.57;;;;;;;;;;5075312;28;20078;-54
2021/03/31 13:43:23;;;;;;;9.40;3.50;;;;;;;;;;5075146;28;20025;-54
2021/03/31 13:45:50;;;;;;;9.40;3.53;;;;;;;;;;5075128;28;20021;-54
2021/03/31 13:48:21;;;;;;;10.03;3.73;;;;;;;;;;5075013;28;20103;-54
2021/03/31 13:50:47;;;;;;;5.27;3.00;;;;;;;;;;5075169;28;20017;-54
2021/03/31 13:53:20;;;;;;;5.00;3.30;;;;;;;;;;5074839;28;20016;-54
2021/03/31 13:55:48;;;;;;;7.73;3.67;;;;;;;;;;5075060;28;20028;-54
2021/03/31 13:58:15;;;;;;;14.83;3.90;;;;;;;;;;5074891;28;20052;-54
2021/03/31 14:00:42;;;;;;;6.10;3.90;;;;;;;;;;5074788;28;20025;-54
2021/03/31 14:03:09;;;;;;;16.50;4.13;;;;;;;;;;5074681;28;20059;-54
2021/03/31 14:05:36;;;;;;;9.33;3.70;;;;;;;;;;5074843;28;20371;-54
2021/03/31 14:08:02;;;;;;;6.27;3.30;;;;;;;;;;5074793;28;20024;-54
2021/03/31 14:10:29;;;;;;;7.00;4.00;;;;;;;;;;5074547;28;20154;-54
2021/03/31 14:12:57;;;;;;;5.93;3.87;;;;;;;;;;5074709;28;20032;-54
2021/03/31 14:15:24;;;;;;;8.80;5.70;;;;;;;;;;5074689;28;20021;-54
2021/03/31 14:17:51;;;;;;;8.17;5.20;;;;;;;;;;5074469;28;20051;-54
2021/03/31 14:20:19;;;;;;;14.33;4.83;;;;;;;;;;5074776;28;20028;-54
2021/03/31 14:22:47;;;;;;;8.97;4.77;;;;;;;;;;5074432;28;20028;-54
2021/03/31 14:25:19;;;;;;;16.67;5.83;;;;;;;;;;5074208;28;20029;-54
2021/03/31 14:27:46;;;;;;;14.87;5.80;;;;;;;;;;5074205;28;20434;-54
2021/03/31 14:30:14;;;;;;;12.43;6.33;;;;;;;;;;5074237;28;20070;-54
2021/03/31 14:32:41;;;;;;;15.53;7.23;;;;;;;;;;5074215;28;20384;-54
2021/03/31 14:35:08;;;;;;;15.20;6.50;;;;;;;;;;5073999;28;20398;-54
2021/03/31 14:37:36;;;;;;;14.30;7.13;;;;;;;;;;5074239;28;20035;-54
2021/03/31 14:40:04;;;;;;;14.03;6.17;;;;;;;;;;5073843;28;20051;-54
2021/03/31 14:42:31;;;;;;;10.20;6.47;;;;;;;;;;5073995;28;20036;-54
2021/03/31 14:44:59;;;;;;;17.17;8.00;;;;;;;;;;5073953;28;20060;-54
2021/03/31 14:47:31;;;;;;;12.47;6.60;;;;;;;;;;5073964;28;20035;-54
2021/03/31 14:50:12;;;;;;;14.53;6.73;;;;;;;;;;5073840;28;20459;-54
2021/03/31 15:00:55;;;;;;;10.93;5.80;;;;;;;;;;5073893;28;20043;-55
2021/03/31 15:03:22;;;;;;;10.63;5.63;;;;;;;;;;5073588;28;20094;-54
2021/03/31 15:05:49;;;;;;;11.77;6.53;;;;;;;;;;5073609;28;20020;-55
2021/03/31 15:08:17;;;;;;;9.00;5.30;;;;;;;;;;5073976;28;20050;-55
2021/03/31 15:10:44;;;;;;;14.87;6.30;;;;;;;;;;5073475;28;20443;-55
2021/03/31 15:13:11;;;;;;;9.43;5.73;;;;;;;;;;5073330;28;20089;-55
2021/03/31 15:15:38;;;;;;;11.27;5.90;;;;;;;;;;5073336;28;20025;-55
2021/03/31 15:18:05;;;;;;;9.17;5.17;;;;;;;;;;5073640;28;20146;-55
2021/03/31 15:20:49;;;;;;;10.27;5.17;;;;;;;;;;5073571;28;20534;-55
2021/03/31 15:23:38;;;;;;;9.48;5.32;;;;;;;;;;5073424;28;20054;-55
2021/03/31 15:26:05;;;;;;;9.20;5.10;;;;;;;;;;5073297;28;20063;-55
2021/03/31 15:28:35;;;;;;;9.87;5.30;;;;;;;;;;5073170;28;20016;-55
2021/03/31 15:31:02;;;;;;;11.17;5.27;;;;;;;;;;5073176;28;20467;-55
2021/03/31 15:33:29;;;;;;;10.80;5.57;;;;;;;;;;5072969;28;20039;-55
2021/03/31 15:35:56;;;;;;;8.00;4.97;;;;;;;;;;5072991;28;20036;-55
2021/03/31 15:38:22;;;;;;;12.47;5.87;;;;;;;;;;5073051;28;20021;-55
2021/03/31 15:40:53;;;;;;;8.80;5.07;;;;;;;;;;5072940;28;20035;-55